< < Back
Terminal Aerodrome Forecast


Current Version              Previous Versions:   1  2  3  4  5  6  7  8  9  

Terminal Aerodrome Forecast

904
FTUS42 KMLB 021131
TAFMCO
TAF
KMCO 021131Z 0212/0312 16006KT P6SM FEW050 SCT120 BKN150
     FM021400 21011KT P6SM VCSH SCT030 BKN150
     FM021600 22014G22KT P6SM VCSH SCT040 BKN080
      TEMPO 0216/0220 3SM TSRA BKN020CB OVC040
     FM022200 23010KT P6SM SCT030 OVC060
     FM030200 19004KT P6SM FEW035 BKN090 OVC200=



Latest METAR

123
SAUS70 KWBC 021200 RRE
MTRMCO
METAR KMCO 021153Z 15006KT 10SM SCT070 SCT120 BKN170 BKN250 24/24 A2995
RMK SLP140 60000 70212 T02440239 10244 20228 53010


USA.gov is the U.S. government's official web portal to all federal, state and local government web resources and services.